Time;durP1;ratioP1;P1;durP2;ratioP2;P2;SDS_P1;SDS_P2;PMS_P1;PMS_P2;Temp;Humidity;BMP_temperature;BMP_pressure;BME280_temperature;BME280_humidity;BME280_pressure;Samples;Min_cycle;Max_cycle;Signal;HPM_P1;HPM_P2
2023/04/17 00:00:15;;;;;;;24.87;17.63;;;8.20;99.90;;;;;;5031611;28;20176;-30
2023/04/17 00:02:41;;;;;;;24.40;17.53;;;8.20;99.90;;;;;;5041256;28;20187;-30
2023/04/17 00:05:07;;;;;;;24.73;17.43;;;8.30;99.90;;;;;;5029225;28;20179;-30
2023/04/17 00:07:37;;;;;;;24.30;18.13;;;8.20;99.90;;;;;;5028973;28;20671;-31
2023/04/17 00:10:06;;;;;;;24.87;17.00;;;8.20;99.90;;;;;;5024134;28;20262;-29
2023/04/17 00:12:32;;;;;;;25.37;18.00;;;8.20;99.90;;;;;;5029832;28;20235;-30
2023/04/17 00:14:58;;;;;;;28.00;19.13;;;8.20;99.90;;;;;;5014006;28;20261;-30
2023/04/17 00:17:24;;;;;;;24.93;18.00;;;8.20;99.90;;;;;;5029804;28;20686;-30
2023/04/17 00:19:50;;;;;;;27.40;18.07;;;8.20;99.90;;;;;;5042342;28;20170;-30
2023/04/17 00:22:15;;;;;;;25.13;17.53;;;8.20;99.90;;;;;;5030487;28;20178;-29
2023/04/17 00:24:41;;;;;;;26.17;19.00;;;8.20;99.90;;;;;;5013798;28;20178;-31
2023/04/17 00:27:07;;;;;;;25.07;17.73;;;8.20;99.90;;;;;;5007213;28;20204;-29
2023/04/17 00:29:33;;;;;;;26.30;17.87;;;8.20;99.90;;;;;;5029761;28;20182;-30
2023/04/17 00:31:59;;;;;;;24.03;17.40;;;8.20;99.90;;;;;;5010257;28;20194;-29
2023/04/17 00:34:25;;;;;;;27.50;17.83;;;8.20;99.90;;;;;;5009800;28;20183;-29
2023/04/17 00:36:51;;;;;;;23.57;17.73;;;8.30;99.90;;;;;;5013098;28;20577;-29
2023/04/17 00:39:16;;;;;;;25.90;17.77;;;8.30;99.90;;;;;;5013160;28;20170;-30
2023/04/17 00:41:42;;;;;;;24.67;17.47;;;8.20;99.90;;;;;;5012852;28;20248;-31
2023/04/17 00:44:08;;;;;;;22.53;17.33;;;8.20;99.90;;;;;;5029186;28;20189;-29
2023/04/17 00:46:34;;;;;;;21.57;17.23;;;8.20;99.90;;;;;;5044725;28;20198;-30
2023/04/17 00:49:00;;;;;;;23.77;17.53;;;8.20;99.90;;;;;;5033922;28;20208;-29
2023/04/17 00:51:26;;;;;;;23.37;17.03;;;8.20;99.90;;;;;;5033563;28;20182;-30
2023/04/17 00:53:53;;;;;;;22.00;16.60;;;8.20;99.90;;;;;;5015265;28;20186;-29
2023/04/17 00:56:20;;;;;;;21.70;16.17;;;8.20;99.90;;;;;;5023129;28;20198;-31
2023/04/17 00:58:47;;;;;;;21.93;15.80;;;8.30;99.90;;;;;;5032860;28;20233;-29
2023/04/17 01:01:13;;;;;;;22.53;15.60;;;8.30;99.90;;;;;;5034260;28;20182;-29
2023/04/17 01:03:39;;;;;;;22.17;16.40;;;8.30;99.90;;;;;;5032028;28;20220;-29
2023/04/17 01:06:05;;;;;;;21.47;15.37;;;8.30;99.90;;;;;;5032335;28;20194;-29
2023/04/17 01:08:40;;;;;;;21.13;15.90;;;8.30;99.90;;;;;;5017412;28;20179;-32
2023/04/17 01:11:07;;;;;;;21.47;15.60;;;8.30;99.90;;;;;;5033587;28;20208;-30
2023/04/17 01:13:33;;;;;;;21.60;15.53;;;8.30;99.90;;;;;;5017498;28;20201;-29
2023/04/17 01:15:59;;;;;;;20.40;14.83;;;8.30;99.90;;;;;;5043332;28;20249;-30
2023/04/17 01:18:25;;;;;;;22.47;16.30;;;8.30;99.90;;;;;;5032712;28;20226;-30
2023/04/17 01:20:50;;;;;;;22.23;15.93;;;8.30;99.90;;;;;;5033597;28;20235;-32
2023/04/17 01:23:17;;;;;;;21.20;15.77;;;8.30;99.90;;;;;;5032056;28;20170;-31
2023/04/17 01:25:42;;;;;;;21.13;15.20;;;8.30;99.90;;;;;;5030636;28;20256;-31
2023/04/17 01:28:08;;;;;;;19.87;15.07;;;8.30;99.90;;;;;;5033701;28;20205;-31
2023/04/17 01:30:34;;;;;;;19.53;14.70;;;8.30;99.90;;;;;;5032799;28;20181;-31
2023/04/17 01:33:05;;;;;;;17.47;14.10;;;8.30;99.90;;;;;;5031638;28;20192;-32
2023/04/17 01:35:31;;;;;;;21.63;16.17;;;8.30;99.90;;;;;;5016411;28;20197;-32
2023/04/17 01:37:57;;;;;;;19.90;14.47;;;8.30;99.90;;;;;;5032479;28;20209;-32
2023/04/17 01:40:23;;;;;;;20.03;15.17;;;8.30;99.90;;;;;;5032254;28;20181;-30
2023/04/17 01:42:50;;;;;;;21.07;15.83;;;8.30;99.90;;;;;;5032400;28;20175;-31
2023/04/17 01:45:16;;;;;;;22.23;15.50;;;8.20;99.90;;;;;;5034049;28;20277;-31
2023/04/17 01:47:42;;;;;;;21.27;15.73;;;8.20;99.90;;;;;;5032631;28;20276;-32
2023/04/17 01:50:08;;;;;;;21.90;15.93;;;8.20;99.90;;;;;;5031828;28;20449;-32
2023/04/17 01:52:35;;;;;;;20.83;15.63;;;8.20;99.90;;;;;;5032690;28;20664;-31
2023/04/17 01:55:02;;;;;;;20.20;15.70;;;8.30;99.90;;;;;;5032564;28;20185;-30
2023/04/17 01:57:29;;;;;;;20.33;14.60;;;8.30;99.90;;;;;;5043084;28;20197;-31
2023/04/17 01:59:55;;;;;;;20.90;15.97;;;8.30;99.90;;;;;;5012813;28;20178;-31
2023/04/17 02:02:20;;;;;;;20.87;15.33;;;8.30;99.90;;;;;;5032162;28;20212;-32
2023/04/17 02:04:46;;;;;;;20.77;15.63;;;8.30;99.90;;;;;;5033043;28;20181;-32
2023/04/17 02:07:12;;;;;;;19.73;14.47;;;8.30;99.90;;;;;;5030888;28;20280;-31
2023/04/17 02:09:37;;;;;;;20.60;15.67;;;8.30;99.90;;;;;;5031791;28;20704;-31
2023/04/17 02:12:06;;;;;;;20.33;15.30;;;8.30;99.90;;;;;;5015444;28;20174;-32
2023/04/17 02:14:32;;;;;;;20.87;14.97;;;8.30;99.90;;;;;;5040965;28;20174;-31
2023/04/17 02:16:58;;;;;;;20.73;15.70;;;8.30;99.90;;;;;;5031645;28;20222;-32
2023/04/17 02:19:24;;;;;;;21.70;15.23;;;8.30;99.90;;;;;;5015586;28;20185;-32
2023/04/17 02:21:50;;;;;;;19.67;14.83;;;8.20;99.90;;;;;;5031584;28;20194;-32
2023/04/17 02:24:15;;;;;;;22.53;15.33;;;8.20;99.90;;;;;;5016780;28;20208;-32
2023/04/17 02:26:41;;;;;;;17.47;14.03;;;8.30;99.90;;;;;;5031256;28;20198;-31
2023/04/17 02:29:07;;;;;;;18.23;13.87;;;8.30;99.90;;;;;;5026989;28;20186;-31
2023/04/17 02:31:33;;;;;;;20.13;14.47;;;8.30;99.90;;;;;;5044127;28;20221;-32
2023/04/17 02:33:59;;;;;;;20.73;13.77;;;8.30;99.90;;;;;;5044392;28;20182;-31
2023/04/17 02:36:26;;;;;;;21.17;15.60;;;8.30;99.90;;;;;;5031550;28;20210;-32
2023/04/17 02:38:51;;;;;;;20.87;14.67;;;8.40;99.90;;;;;;5031321;28;20206;-32
2023/04/17 02:41:17;;;;;;;19.90;14.77;;;8.40;99.90;;;;;;5014926;28;20179;-31
2023/04/17 02:43:43;;;;;;;18.50;13.47;;;8.40;99.90;;;;;;5031688;28;20174;-31
2023/04/17 02:46:10;;;;;;;17.60;13.97;;;8.40;99.90;;;;;;5043669;28;20193;-31
2023/04/17 02:48:35;;;;;;;22.37;15.57;;;8.40;99.90;;;;;;5031314;28;20297;-31
2023/04/17 02:51:01;;;;;;;19.17;14.63;;;8.40;99.90;;;;;;5015515;28;20264;-32
2023/04/17 02:53:28;;;;;;;18.73;14.47;;;8.50;99.90;;;;;;5031428;28;20185;-32
2023/04/17 02:55:54;;;;;;;17.07;13.87;;;8.50;99.90;;;;;;5041449;28;20201;-32
2023/04/17 02:58:22;;;;;;;19.17;13.50;;;8.50;99.90;;;;;;5030225;28;20199;-31
2023/04/17 03:00:48;;;;;;;18.67;14.27;;;8.50;99.90;;;;;;5031293;28;20240;-31
2023/04/17 03:03:16;;;;;;;20.00;14.50;;;8.50;99.90;;;;;;5015983;28;20174;-32
2023/04/17 03:05:42;;;;;;;20.83;15.70;;;8.50;99.90;;;;;;5030952;28;20198;-32
2023/04/17 03:08:08;;;;;;;17.27;13.53;;;8.50;99.90;;;;;;5013493;28;20293;-31
2023/04/17 03:10:42;;;;;;;17.33;13.77;;;8.50;99.90;;;;;;5029256;28;20261;-32
2023/04/17 03:13:09;;;;;;;18.07;14.47;;;8.50;99.90;;;;;;5043202;28;20332;-32
2023/04/17 03:15:35;;;;;;;19.20;14.97;;;8.50;99.90;;;;;;5031345;28;20213;-31
2023/04/17 03:18:01;;;;;;;17.47;13.93;;;8.50;99.90;;;;;;5032375;28;20198;-31
2023/04/17 03:20:27;;;;;;;18.97;14.83;;;8.50;99.90;;;;;;5052253;22;20185;-88
2023/04/17 03:22:54;;;;;;;17.17;13.37;;;8.50;99.90;;;;;;5058521;28;20193;-87
2023/04/17 03:25:20;;;;;;;20.30;14.40;;;8.50;99.90;;;;;;5044018;28;20174;-88
2023/04/17 03:27:52;;;;;;;18.27;13.87;;;8.50;99.90;;;;;;5053993;28;20208;-86
2023/04/17 03:30:21;;;;;;;18.93;14.20;;;8.40;99.90;;;;;;5062278;28;20248;-87
2023/04/17 03:32:49;;;;;;;21.37;15.27;;;8.40;99.90;;;;;;5053550;28;20182;-87
2023/04/17 03:35:15;;;;;;;19.07;14.83;;;8.30;99.90;;;;;;5052973;28;20264;-86
2023/04/17 03:37:41;;;;;;;20.80;15.43;;;8.30;99.90;;;;;;5062774;28;20262;-86
2023/04/17 03:40:08;;;;;;;17.37;13.90;;;8.20;99.90;;;;;;5043509;28;20181;-87
2023/04/17 03:42:38;;;;;;;21.13;14.80;;;8.30;99.90;;;;;;5062356;28;20207;-88
2023/04/17 03:45:07;;;;;;;22.10;15.93;;;8.30;99.90;;;;;;5066221;28;20215;-88
2023/04/17 03:47:35;;;;;;;21.30;15.80;;;8.30;99.90;;;;;;5044010;28;20215;-88
2023/04/17 03:50:03;;;;;;;20.23;15.30;;;8.20;99.90;;;;;;5061546;28;20182;-89
2023/04/17 03:52:39;;;;;;;21.00;15.93;;;8.20;99.90;;;;;;5062831;28;20231;-89
2023/04/17 03:55:07;;;;;;;21.63;16.13;;;8.30;99.90;;;;;;5060280;28;20177;-89
2023/04/17 03:57:38;;;;;;;21.93;15.90;;;8.20;99.90;;;;;;5044012;28;20696;-89
2023/04/17 04:00:07;;;;;;;20.80;15.47;;;8.20;99.90;;;;;;5043225;28;20185;-88
2023/04/17 04:02:44;;;;;;;19.33;14.87;;;8.20;99.90;;;;;;5060346;28;20213;-88
2023/04/17 04:05:10;;;;;;;21.70;15.17;;;8.20;99.90;;;;;;5059259;28;20231;-87
2023/04/17 04:07:37;;;;;;;20.03;15.30;;;8.20;99.90;;;;;;5050065;28;20201;-87
2023/04/17 04:10:03;;;;;;;21.03;16.47;;;8.20;99.90;;;;;;5044397;28;20185;-88
2023/04/17 04:12:30;;;;;;;20.83;15.10;;;8.20;99.90;;;;;;5058775;28;20266;-87
2023/04/17 04:14:56;;;;;;;22.17;15.63;;;8.20;99.90;;;;;;5051162;28;20253;-87
2023/04/17 04:17:22;;;;;;;19.77;15.00;;;8.20;99.90;;;;;;5056614;28;20205;-87
2023/04/17 04:19:49;;;;;;;20.47;16.03;;;8.20;99.90;;;;;;5052423;28;20249;-87
2023/04/17 04:22:17;;;;;;;20.80;15.90;;;8.20;99.90;;;;;;5047249;28;20276;-87
2023/04/17 04:24:52;;;;;;;22.20;15.27;;;8.20;99.90;;;;;;5054501;28;20201;-88
2023/04/17 04:27:21;;;;;;;19.47;15.17;;;8.20;99.90;;;;;;5049108;28;20190;-87
2023/04/17 04:29:49;;;;;;;19.80;15.10;;;8.20;99.90;;;;;;5062140;28;20182;-87
2023/04/17 04:32:18;;;;;;;20.23;14.70;;;8.20;99.90;;;;;;5064499;28;20256;-87
2023/04/17 04:34:45;;;;;;;31.93;26.30;;;8.20;99.90;;;;;;5055086;28;20189;-87
2023/04/17 04:37:14;;;;;;;23.00;17.83;;;8.20;99.90;;;;;;5054006;28;20273;-87
2023/04/17 04:39:42;;;;;;;21.97;16.20;;;8.20;99.90;;;;;;5053873;28;20177;-87
2023/04/17 04:42:12;;;;;;;20.20;14.97;;;8.20;99.90;;;;;;5064110;28;20177;-87
2023/04/17 04:44:54;;;;;;;23.27;16.17;;;8.10;99.90;;;;;;5047340;28;20278;-87
2023/04/17 04:47:22;;;;;;;20.20;15.77;;;8.20;99.90;;;;;;5055118;28;20189;-85
2023/04/17 04:49:49;;;;;;;23.10;16.43;;;8.20;99.90;;;;;;5046626;28;20178;-86
2023/04/17 04:52:19;;;;;;;22.97;16.13;;;8.20;99.90;;;;;;5055141;28;20269;-87
2023/04/17 04:54:45;;;;;;;21.83;14.80;;;8.20;99.90;;;;;;5053078;28;20182;-86
2023/04/17 04:57:13;;;;;;;22.87;16.13;;;8.20;99.90;;;;;;5054942;28;20217;-87
2023/04/17 04:59:40;;;;;;;23.03;16.33;;;8.20;99.90;;;;;;5046610;28;20209;-87
2023/04/17 05:02:22;;;;;;;20.90;15.20;;;8.20;99.90;;;;;;5048831;28;20169;-87
2023/04/17 05:04:49;;;;;;;19.70;15.10;;;8.20;99.90;;;;;;5047053;28;20196;-87
2023/04/17 05:07:15;;;;;;;22.53;16.03;;;8.20;99.90;;;;;;5054640;28;20284;-87
2023/04/17 05:09:44;;;;;;;25.23;16.00;;;8.10;99.90;;;;;;5046155;28;20166;-87
2023/04/17 05:12:12;;;;;;;22.20;16.37;;;8.10;99.90;;;;;;5048607;28;20224;-87
2023/04/17 05:14:38;;;;;;;23.03;16.07;;;8.10;99.90;;;;;;5054236;28;20182;-87
2023/04/17 05:17:07;;;;;;;21.17;15.83;;;8.20;99.90;;;;;;5053944;28;20202;-87
2023/04/17 05:19:33;;;;;;;22.10;16.77;;;8.10;99.90;;;;;;5062308;28;20170;-87
2023/04/17 05:22:03;;;;;;;24.50;16.27;;;8.10;99.90;;;;;;5062323;28;20184;-87
2023/04/17 05:24:32;;;;;;;22.87;16.20;;;8.20;99.90;;;;;;5048753;28;20312;-87
2023/04/17 05:26:58;;;;;;;22.93;16.43;;;8.10;99.90;;;;;;5062845;28;20273;-86
2023/04/17 05:29:26;;;;;;;23.07;16.57;;;8.10;99.90;;;;;;5048474;28;20186;-86
2023/04/17 05:31:53;;;;;;;21.80;16.07;;;8.10;99.90;;;;;;5046219;28;20185;-87
2023/04/17 05:34:46;;;;;;;24.73;16.43;;;8.10;99.90;;;;;;5049597;28;20258;-86
2023/04/17 05:37:34;;;;;;;23.97;15.97;;;8.10;99.90;;;;;;5067307;28;20197;-87
2023/04/17 05:40:00;;;;;;;23.40;16.53;;;8.10;99.90;;;;;;5053558;28;20210;-86
2023/04/17 05:42:27;;;;;;;24.17;16.63;;;8.10;99.90;;;;;;5053414;28;20170;-87
2023/04/17 05:44:54;;;;;;;22.97;16.00;;;8.10;99.90;;;;;;5061928;28;20192;-86
2023/04/17 05:47:20;;;;;;;27.57;17.10;;;8.10;99.90;;;;;;5052450;28;20202;-87
2023/04/17 05:49:47;;;;;;;24.23;16.30;;;8.20;99.90;;;;;;5062412;28;20264;-87
2023/04/17 05:52:13;;;;;;;23.40;16.43;;;8.20;99.90;;;;;;5046253;28;20652;-87
2023/04/17 05:54:42;;;;;;;24.43;15.97;;;8.20;99.90;;;;;;5047609;28;20240;-84
2023/04/17 05:57:08;;;;;;;23.73;15.47;;;8.20;99.90;;;;;;5044972;28;20243;-77
2023/04/17 05:59:35;;;;;;;23.30;16.57;;;8.30;99.90;;;;;;5047039;28;20260;-86
2023/04/17 06:02:09;;;;;;;21.40;15.70;;;8.30;99.90;;;;;;5063649;28;20343;-86
2023/04/17 06:04:36;;;;;;;23.43;16.77;;;8.30;99.90;;;;;;5063224;28;20178;-86
2023/04/17 06:07:04;;;;;;;21.60;15.40;;;8.30;99.90;;;;;;5061405;28;20251;-87
2023/04/17 06:09:32;;;;;;;21.63;15.50;;;8.30;99.90;;;;;;5061403;28;20591;-86
2023/04/17 06:11:59;;;;;;;22.77;15.73;;;8.40;99.90;;;;;;5052733;28;20174;-86
2023/04/17 06:14:26;;;;;;;20.17;14.80;;;8.40;99.90;;;;;;5053997;28;20191;-87
2023/04/17 06:16:52;;;;;;;19.17;13.97;;;8.40;99.90;;;;;;5062670;28;20217;-87
2023/04/17 06:19:18;;;;;;;19.27;14.13;;;8.50;99.90;;;;;;5060387;28;20236;-87
2023/04/17 06:21:44;;;;;;;18.07;14.23;;;8.50;99.90;;;;;;5045012;28;20288;-88
2023/04/17 06:24:10;;;;;;;18.30;13.37;;;8.50;99.90;;;;;;5060803;28;20188;-87
2023/04/17 06:26:42;;;;;;;18.47;14.10;;;8.50;99.90;;;;;;5054092;28;20197;-87
2023/04/17 06:29:08;;;;;;;18.07;13.33;;;8.50;99.90;;;;;;5046213;28;20185;-87
2023/04/17 06:31:36;;;;;;;18.13;13.10;;;8.50;99.90;;;;;;5044915;28;20216;-87
2023/04/17 06:34:02;;;;;;;18.47;13.00;;;8.60;99.90;;;;;;5061076;28;20209;-87
2023/04/17 06:36:32;;;;;;;16.50;13.20;;;8.50;99.90;;;;;;5061930;28;20194;-87
2023/04/17 06:39:01;;;;;;;17.40;13.03;;;8.60;99.90;;;;;;5059018;28;20193;-87
2023/04/17 06:41:28;;;;;;;17.23;13.03;;;8.60;99.90;;;;;;5044367;28;20248;-88
2023/04/17 06:43:54;;;;;;;18.00;12.60;;;8.60;99.90;;;;;;5058924;28;20178;-88
2023/04/17 06:46:23;;;;;;;18.27;12.77;;;8.60;99.90;;;;;;5059252;28;20282;-88
2023/04/17 06:48:51;;;;;;;18.73;12.90;;;8.60;99.90;;;;;;5046141;28;20177;-88
2023/04/17 06:51:20;;;;;;;15.53;12.40;;;8.70;99.90;;;;;;5044386;28;20181;-88
2023/04/17 06:53:49;;;;;;;16.53;12.20;;;8.70;99.90;;;;;;5062270;28;20174;-87
2023/04/17 06:56:16;;;;;;;15.67;12.17;;;8.80;99.90;;;;;;5061095;28;20673;-88
2023/04/17 06:58:45;;;;;;;16.17;12.10;;;8.70;99.90;;;;;;5045826;28;20201;-88
2023/04/17 07:01:11;;;;;;;18.37;12.83;;;8.70;99.90;;;;;;5062509;28;20200;-87
2023/04/17 07:03:38;;;;;;;15.13;11.50;;;8.80;99.90;;;;;;5044152;28;20201;-88
2023/04/17 07:06:04;;;;;;;17.30;12.63;;;8.80;99.90;;;;;;5051695;28;20181;-88
2023/04/17 07:08:31;;;;;;;15.40;12.03;;;8.70;99.90;;;;;;5059933;28;20185;-87
2023/04/17 07:10:57;;;;;;;14.90;11.57;;;8.70;99.90;;;;;;5062148;28;20169;-88
2023/04/17 07:13:23;;;;;;;16.07;11.60;;;8.70;99.90;;;;;;5044443;28;20205;-88
2023/04/17 07:15:53;;;;;;;13.87;11.13;;;8.70;99.90;;;;;;5061585;28;20216;-87
2023/04/17 07:18:29;;;;;;;15.27;11.47;;;8.70;99.90;;;;;;5044679;28;20230;-88
2023/04/17 07:20:55;;;;;;;16.03;11.50;;;8.80;99.90;;;;;;5043029;28;20191;-88
2023/04/17 07:23:22;;;;;;;15.23;11.43;;;8.80;99.90;;;;;;5044191;28;20642;-87
2023/04/17 07:25:48;;;;;;;16.07;11.37;;;8.80;99.90;;;;;;5043482;28;20265;-89
2023/04/17 07:28:14;;;;;;;14.93;10.77;;;8.80;99.90;;;;;;5049947;28;20205;-88
2023/04/17 07:30:41;;;;;;;13.13;10.10;;;8.90;99.90;;;;;;5050143;28;20261;-85
2023/04/17 07:33:07;;;;;;;14.77;10.73;;;8.90;99.90;;;;;;5059045;28;20188;-88
2023/04/17 07:35:33;;;;;;;13.40;10.87;;;9.00;99.90;;;;;;5044203;28;20216;-88
2023/04/17 07:38:02;;;;;;;13.43;10.40;;;9.10;99.90;;;;;;5060993;28;20232;-89
2023/04/17 07:40:29;;;;;;;13.00;10.67;;;9.10;99.90;;;;;;5062101;28;20169;-88
2023/04/17 07:42:55;;;;;;;16.43;11.00;;;9.10;99.90;;;;;;5044632;28;20188;-88
2023/04/17 07:45:22;;;;;;;13.23;10.47;;;9.10;99.90;;;;;;5060621;28;20189;-88
2023/04/17 07:47:51;;;;;;;12.30;9.60;;;9.10;99.90;;;;;;5051951;28;20223;-87
2023/04/17 07:50:17;;;;;;;12.00;9.40;;;9.10;99.90;;;;;;5060211;28;20174;-88
2023/04/17 07:52:43;;;;;;;11.03;8.67;;;9.10;99.90;;;;;;5051339;28;20174;-88
2023/04/17 07:55:09;;;;;;;11.30;8.77;;;9.10;99.90;;;;;;5062685;28;20185;-88
2023/04/17 07:57:35;;;;;;;11.80;9.23;;;9.20;99.90;;;;;;5060160;28;20201;-88
2023/04/17 08:00:01;;;;;;;9.63;8.23;;;9.20;99.90;;;;;;5061114;28;20184;-88
2023/04/17 08:02:39;;;;;;;10.20;8.10;;;9.10;99.90;;;;;;5061994;28;20177;-86
2023/04/17 08:05:06;;;;;;;11.67;8.77;;;9.10;99.90;;;;;;5055874;28;20187;-87
2023/04/17 08:07:36;;;;;;;11.73;9.57;;;9.20;99.90;;;;;;5068279;28;20197;-87
2023/04/17 08:10:04;;;;;;;12.17;9.63;;;9.20;99.90;;;;;;5064872;28;20173;-87
2023/04/17 08:12:29;;;;;;;13.27;9.50;;;9.10;99.90;;;;;;5080655;28;20237;-87
2023/04/17 08:14:55;;;;;;;11.67;9.37;;;9.00;99.90;;;;;;5063917;28;20178;-87
2023/04/17 08:17:24;;;;;;;11.50;9.10;;;8.90;99.90;;;;;;5045854;28;20201;-87
2023/04/17 08:19:57;;;;;;;12.47;9.30;;;8.90;99.90;;;;;;5062282;28;20204;-87
2023/04/17 08:22:24;;;;;;;11.23;9.10;;;8.90;99.90;;;;;;5045020;28;20220;-86
2023/04/17 08:24:56;;;;;;;13.40;10.10;;;8.90;99.90;;;;;;5061266;28;20386;-86
2023/04/17 08:27:24;;;;;;;11.10;8.53;;;8.90;99.90;;;;;;5060845;28;20276;-86
2023/04/17 08:29:52;;;;;;;9.80;8.20;;;8.90;99.90;;;;;;5044311;28;20185;-86
2023/04/17 08:32:20;;;;;;;9.60;7.30;;;8.90;99.90;;;;;;5051113;28;20308;-87
2023/04/17 08:34:46;;;;;;;10.10;8.10;;;9.00;99.90;;;;;;5064502;28;20195;-87
2023/04/17 08:37:12;;;;;;;8.97;7.10;;;9.10;99.90;;;;;;5047466;28;20685;-87
2023/04/17 08:39:38;;;;;;;8.27;7.03;;;9.10;99.90;;;;;;5061925;28;20177;-87
2023/04/17 08:42:09;;;;;;;6.87;5.60;;;9.10;99.90;;;;;;5051379;28;20180;-87
2023/04/17 08:44:36;;;;;;;6.30;5.27;;;9.20;99.90;;;;;;5053574;28;20174;-87
2023/04/17 08:47:03;;;;;;;5.80;5.17;;;9.20;99.90;;;;;;5048924;28;20190;-87
2023/04/17 08:49:32;;;;;;;5.90;4.97;;;9.30;99.90;;;;;;5049464;28;20174;-87
2023/04/17 08:52:04;;;;;;;5.70;4.60;;;9.40;99.90;;;;;;5066188;28;20180;-86
2023/04/17 08:54:32;;;;;;;4.87;4.37;;;9.50;99.90;;;;;;5062530;28;20169;-87
2023/04/17 08:57:04;;;;;;;5.67;4.80;;;9.50;99.90;;;;;;5049766;28;20217;-87
2023/04/17 08:59:31;;;;;;;5.80;4.70;;;9.50;99.90;;;;;;5065344;28;20253;-87
2023/04/17 09:02:05;;;;;;;5.00;4.17;;;9.60;99.90;;;;;;5058651;28;20170;-87
2023/04/17 09:04:38;;;;;;;4.83;4.07;;;9.80;99.90;;;;;;5050049;28;20205;-87
2023/04/17 09:07:11;;;;;;;5.73;3.83;;;9.90;99.90;;;;;;5067792;28;20257;-87
2023/04/17 09:09:48;;;;;;;5.20;4.07;;;9.80;99.90;;;;;;5072977;28;20238;-87
2023/04/17 09:12:14;;;;;;;4.70;3.97;;;9.80;99.90;;;;;;5072030;28;20177;-87
2023/04/17 09:14:40;;;;;;;4.53;3.37;;;9.80;99.90;;;;;;5056651;28;20178;-87
2023/04/17 09:17:06;;;;;;;4.67;3.40;;;9.80;99.90;;;;;;5069092;28;20258;-87
2023/04/17 09:19:32;;;;;;;4.20;3.50;;;9.90;99.90;;;;;;5070032;28;20231;-88
2023/04/17 09:22:18;;;;;;;4.10;3.50;;;9.90;99.90;;;;;;5052952;28;20213;-87
2023/04/17 09:24:45;;;;;;;3.90;3.50;;;9.90;99.90;;;;;;5069319;28;20208;-87
2023/04/17 09:27:21;;;;;;;4.17;3.27;;;9.90;99.90;;;;;;5053324;28;20213;-87
2023/04/17 09:30:00;;;;;;;4.00;3.40;;;9.90;99.90;;;;;;5079285;28;20169;-87
2023/04/17 09:32:26;;;;;;;4.27;3.53;;;10.00;99.90;;;;;;5054650;28;20174;-87
2023/04/17 09:34:53;;;;;;;4.13;3.73;;;10.10;99.90;;;;;;5071592;28;20185;-87
2023/04/17 09:37:20;;;;;;;4.43;3.83;;;10.20;99.90;;;;;;5069876;28;20193;-87
2023/04/17 09:40:00;;;;;;;5.37;3.83;;;10.20;99.90;;;;;;5056218;28;20182;-87
2023/04/17 09:42:27;;;;;;;4.97;4.20;;;10.30;99.90;;;;;;5062470;28;20178;-87
2023/04/17 09:44:53;;;;;;;4.50;4.03;;;10.30;99.90;;;;;;5053090;28;20261;-87
2023/04/17 09:47:21;;;;;;;5.00;3.93;;;10.20;99.90;;;;;;5068557;28;20194;-87
2023/04/17 09:49:51;;;;;;;5.10;4.10;;;10.10;99.90;;;;;;5052858;28;20192;-87
2023/04/17 09:52:23;;;;;;;4.83;3.90;;;10.20;99.90;;;;;;5051384;28;20234;-87
2023/04/17 09:54:52;;;;;;;4.10;3.70;;;10.10;99.90;;;;;;5052830;28;20173;-87
2023/04/17 09:57:18;;;;;;;4.40;3.93;;;10.20;99.90;;;;;;5062645;28;20244;-88
2023/04/17 09:59:48;;;;;;;5.27;4.13;;;10.30;99.90;;;;;;5053752;28;20209;-87
2023/04/17 10:02:16;;;;;;;4.73;4.10;;;10.30;99.90;;;;;;5059567;28;20184;-87
2023/04/17 10:04:44;;;;;;;5.30;4.60;;;10.30;99.90;;;;;;5061651;28;20174;-87
2023/04/17 10:07:11;;;;;;;5.63;4.73;;;10.20;99.90;;;;;;5070009;28;20194;-87
2023/04/17 10:09:41;;;;;;;4.80;4.30;;;10.30;99.90;;;;;;5070774;28;20237;-87
2023/04/17 10:12:18;;;;;;;5.80;4.70;;;10.30;99.90;;;;;;5068877;28;20193;-87
2023/04/17 10:14:50;;;;;;;5.27;4.23;;;10.20;99.90;;;;;;5068710;28;20299;-87
2023/04/17 10:17:30;;;;;;;5.07;4.20;;;10.30;99.90;;;;;;5066878;28;20189;-87
2023/04/17 10:20:16;;;;;;;4.93;4.40;;;10.30;99.90;;;;;;5051487;28;20191;-87
2023/04/17 10:23:22;;;;;;;6.60;4.70;;;10.40;99.90;;;;;;5069009;28;20182;-87
2023/04/17 10:25:48;;;;;;;4.93;4.43;;;10.30;99.90;;;;;;5054907;28;20268;-87
2023/04/17 10:28:54;;;;;;;6.00;5.10;;;10.20;99.90;;;;;;5068540;28;20229;-87
2023/04/17 10:31:22;;;;;;;5.13;4.57;;;10.20;99.90;;;;;;5068794;28;20196;-87
2023/04/17 10:33:49;;;;;;;5.77;4.53;;;10.30;99.90;;;;;;5068390;28;20187;-87
2023/04/17 10:36:38;;;;;;;4.90;4.40;;;10.40;99.90;;;;;;5070526;28;20228;-87
2023/04/17 10:39:15;;;;;;;5.43;4.43;;;10.50;99.90;;;;;;5062027;28;20241;-87
2023/04/17 10:42:04;;;;;;;5.80;4.10;;;10.50;99.90;;;;;;5071661;28;20177;-87
2023/04/17 10:44:38;;;;;;;4.30;3.87;;;10.60;99.90;;;;;;5052604;28;20170;-87
2023/04/17 10:47:08;;;;;;;4.57;3.83;;;10.50;99.90;;;;;;5065045;28;20197;-87
2023/04/17 10:49:50;;;;;;;4.43;4.00;;;10.40;99.90;;;;;;5052177;28;20182;-87
2023/04/17 10:52:40;;;;;;;4.00;3.60;;;10.20;99.90;;;;;;5066444;28;20176;-87
2023/04/17 10:55:19;;;;;;;4.77;4.13;;;10.30;99.90;;;;;;5049395;28;20165;-87
2023/04/17 10:58:03;;;;;;;4.20;3.80;;;10.30;99.90;;;;;;5069473;28;20382;-87
2023/04/17 11:00:35;;;;;;;4.37;3.43;;;10.40;99.90;;;;;;5050966;28;20179;-88
2023/04/17 11:03:02;;;;;;;4.10;3.67;;;10.50;99.90;;;;;;5066270;28;20182;-87
2023/04/17 11:05:30;;;;;;;3.43;3.10;;;10.60;99.90;;;;;;5053122;28;20193;-87
2023/04/17 11:07:57;;;;;;;3.93;3.43;;;10.60;99.90;;;;;;5072673;28;20202;-87
2023/04/17 11:10:23;;;;;;;3.97;3.57;;;10.70;99.90;;;;;;5068302;28;20185;-87
2023/04/17 11:12:55;;;;;;;5.47;3.87;;;10.70;99.90;;;;;;5065382;28;20205;-87
2023/04/17 11:15:35;;;;;;;4.73;3.83;;;10.80;99.90;;;;;;5066016;28;20185;-87
2023/04/17 11:18:02;;;;;;;4.37;3.50;;;10.80;99.90;;;;;;5054839;28;20476;-87
2023/04/17 11:20:30;;;;;;;4.30;3.20;;;10.90;99.90;;;;;;5054984;28;20178;-87
2023/04/17 11:23:06;;;;;;;3.53;3.23;;;11.00;99.90;;;;;;5058176;28;20206;-88
2023/04/17 11:25:33;;;;;;;3.47;3.17;;;11.10;99.90;;;;;;5062588;28;20181;-87
2023/04/17 11:28:04;;;;;;;3.10;2.80;;;11.10;99.90;;;;;;5054798;28;20335;-87
2023/04/17 11:30:35;;;;;;;2.83;2.57;;;11.20;99.90;;;;;;5054202;28;20188;-88
2023/04/17 11:33:09;;;;;;;3.20;2.90;;;11.20;99.90;;;;;;5074487;28;20181;-88
2023/04/17 11:35:38;;;;;;;3.90;3.20;;;11.10;99.90;;;;;;5076815;28;20186;-87
2023/04/17 11:38:38;;;;;;;3.20;2.90;;;11.10;99.90;;;;;;5071119;28;20210;-88
2023/04/17 11:41:08;;;;;;;2.70;2.50;;;11.10;99.90;;;;;;5071475;28;20268;-88
2023/04/17 11:43:37;;;;;;;2.73;2.53;;;11.10;99.90;;;;;;5057205;28;20182;-87
2023/04/17 11:46:05;;;;;;;2.93;2.60;;;11.00;99.90;;;;;;5049878;28;20162;-87
2023/04/17 11:48:31;;;;;;;2.90;2.57;;;11.00;99.90;;;;;;5060537;28;20269;-86
2023/04/17 11:51:00;;;;;;;2.87;2.53;;;11.00;99.90;;;;;;5043472;28;20207;-87
2023/04/17 11:53:26;;;;;;;3.10;2.60;;;11.10;99.90;;;;;;5050880;28;20182;-86
2023/04/17 11:56:19;;;;;;;2.60;2.40;;;11.10;99.90;;;;;;5060314;28;20204;-87
2023/04/17 11:58:49;;;;;;;2.33;2.13;;;11.10;99.90;;;;;;5061977;28;20201;-87
2023/04/17 12:01:16;;;;;;;2.47;2.27;;;11.10;99.90;;;;;;5061316;28;20179;-86
2023/04/17 12:03:43;;;;;;;3.30;3.00;;;11.00;99.90;;;;;;5046273;28;20181;-86
2023/04/17 12:06:10;;;;;;;2.87;2.67;;;11.10;99.90;;;;;;5043996;28;20181;-87
2023/04/17 12:08:52;;;;;;;3.20;2.90;;;11.10;99.90;;;;;;5046176;28;20170;-86
2023/04/17 12:11:22;;;;;;;3.50;3.20;;;11.00;99.90;;;;;;5060319;28;20182;-86
2023/04/17 12:13:48;;;;;;;3.87;3.50;;;11.00;99.90;;;;;;5044369;28;20186;-86
2023/04/17 12:16:14;;;;;;;3.47;3.17;;;10.90;99.90;;;;;;5064212;28;20466;-86
2023/04/17 12:18:40;;;;;;;3.63;2.90;;;11.00;99.90;;;;;;5060247;28;20293;-86
2023/04/17 12:21:06;;;;;;;3.10;2.80;;;11.10;99.90;;;;;;5046316;28;20190;-87
2023/04/17 12:23:32;;;;;;;5.10;3.70;;;11.20;99.90;;;;;;5052582;28;20174;-88
2023/04/17 12:25:58;;;;;;;3.50;3.20;;;11.30;99.90;;;;;;5063479;28;20221;-88
2023/04/17 12:28:25;;;;;;;3.50;3.10;;;11.40;99.90;;;;;;5060289;28;20207;-87
2023/04/17 12:30:51;;;;;;;4.27;3.63;;;11.60;99.90;;;;;;5060750;28;20220;-87
2023/04/17 12:33:17;;;;;;;4.33;3.57;;;11.80;99.90;;;;;;5045950;28;20203;-87
2023/04/17 12:35:45;;;;;;;3.97;3.57;;;11.90;99.90;;;;;;5061055;28;20187;-87
2023/04/17 12:38:11;;;;;;;3.47;3.07;;;12.10;99.90;;;;;;5045709;28;20201;-87
2023/04/17 12:40:41;;;;;;;3.77;3.37;;;12.30;99.90;;;;;;5051589;28;20177;-86
2023/04/17 12:43:13;;;;;;;3.30;3.00;;;12.50;99.90;;;;;;5054695;28;20184;-87
2023/04/17 12:45:41;;;;;;;2.73;2.53;;;12.70;99.90;;;;;;5065189;28;20256;-87
2023/04/17 12:48:08;;;;;;;2.70;2.33;;;12.70;99.90;;;;;;5065509;28;20274;-87